CSCL Fuzhou — ELYA7 — position and weather

sailwx.info

Track history (hours):
 
Tides and Currents Weather Stations Pressure Air Temp Water Temp Dewpoint Dewpoint Depression Visibility Wind Speed Wind Dir Waves Ship Positions

CSCL Fuzhou

Last reported at 2015-Jul-27 10:10 UTC. Time now 2015-Aug-03 06:42 UTC.
Position N 03°23' E 100°27'.

Length 207.4 m; beam 29.8 m; draft 11.4 m.

Type: Ship. MMSI: 636016483.

Date/timePositionNaut miles runAvg speedWind from/ knotsBaromVisibWave heightAir tempDewpointWater temp
2015-Jul-27 10:10N 03°23' E 100°27'4115.6
2015-Jul-27 07:33N 02°54' E 100°56'3316.4
2015-Jul-27 05:33N 02°37' E 101°25'1813.0
2015-Jul-27 04:09N 02°27' E 101°39'1012.9
2015-Jul-27 03:23N 02°20' E 101°47'13412.4
2015-Jul-26 16:33N 01°16' E 103°45'2 1.8
2015-Jul-26 15:32N 01°16' E 103°47'0 0.0
2015-Jul-26 14:29N 01°16' E 103°47'0 0.0
2015-Jul-26 13:08N 01°16' E 103°47'0 0.0
2015-Jul-26 12:32N 01°16' E 103°47'0 0.0
2015-Jul-26 11:32N 01°16' E 103°47'0 0.0
2015-Jul-26 10:32N 01°16' E 103°47'0 0.0
2015-Jul-26 09:32N 01°16' E 103°47'0 0.0
2015-Jul-26 08:20N 01°16' E 103°47'0 0.0
2015-Jul-26 07:32N 01°16' E 103°47'0 0.0
2015-Jul-26 06:26N 01°16' E 103°47'0 0.0
2015-Jul-26 05:32N 01°16' E 103°47'0 0.0
2015-Jul-26 04:32N 01°16' E 103°47'0 0.0
2015-Jul-26 03:32N 01°16' E 103°47'0 0.0
2015-Jul-26 02:32N 01°16' E 103°47'0 0.0
2015-Jul-26 01:20N 01°16' E 103°47'0 0.0
2015-Jul-26 00:33N 01°16' E 103°47'2 1.7
2015-Jul-25 23:33N 01°15' E 103°46'6 5.9
2015-Jul-25 22:34N 01°13' E 103°40'8 7.5
2015-Jul-25 21:31N 01°13' E 103°32'138 2.8
2015-Jul-23 19:33N 02°27' E 101°35'1312.6
2015-Jul-23 18:33N 02°35' E 101°25'1312.9
2015-Jul-23 17:33N 02°41' E 101°14'16 5.3
2015-Jul-23 14:33N 02°57' E 101°18'0 0.0
2015-Jul-23 12:30N 02°57' E 101°18'0 0.0
2015-Jul-23 09:33N 02°57' E 101°18'0 0.0
2015-Jul-23 07:33N 02°57' E 101°18'0 0.0
2015-Jul-23 06:33N 02°57' E 101°18'0 0.0
2015-Jul-23 04:33N 02°57' E 101°18'0 0.0
2015-Jul-23 02:33N 02°57' E 101°18'5 2.4
2015-Jul-23 00:33N 02°52' E 101°16'8 8.5
2015-Jul-22 23:33N 02°45' E 101°12'9 9.2
2015-Jul-22 22:33N 02°47' E 101°03'1613.2
2015-Jul-22 21:20N 02°57' E 100°50'2413.3
2015-Jul-22 19:33N 03°12' E 100°32'1413.5
2015-Jul-22 18:33N 03°20' E 100°21'4013.1
2015-Jul-22 15:30N 03°46' E 099°51'2613.5
2015-Jul-22 13:33N 04°02' E 099°30'4313.9
2015-Jul-22 10:27N 04°29' E 098°56'  
Track history (hours):
 
Tides and Currents Weather Stations Pressure Air Temp Water Temp Dewpoint Dewpoint Depression Visibility Wind Speed Wind Dir Waves Ship Positions

CSCL Fuzhou

Last reported at 2015-Jul-27 10:10 UTC. Time now 2015-Aug-03 06:42 UTC.
Position N 03°23' E 100°27'.

Length 207.4 m; beam 29.8 m; draft 11.4 m.

Type: Ship. MMSI: 636016483.

Date/timePositionNaut miles runAvg speedWind from/ knotsBaromVisibWave heightAir tempDewpointWater temp
2015-Jul-27 10:10N 03°23' E 100°27'4115.6
2015-Jul-27 07:33N 02°54' E 100°56'3316.4
2015-Jul-27 05:33N 02°37' E 101°25'1813.0
2015-Jul-27 04:09N 02°27' E 101°39'1012.9
2015-Jul-27 03:23N 02°20' E 101°47'13412.4
2015-Jul-26 16:33N 01°16' E 103°45'2 1.8
2015-Jul-26 15:32N 01°16' E 103°47'0 0.0
2015-Jul-26 14:29N 01°16' E 103°47'0 0.0
2015-Jul-26 13:08N 01°16' E 103°47'0 0.0
2015-Jul-26 12:32N 01°16' E 103°47'0 0.0
2015-Jul-26 11:32N 01°16' E 103°47'0 0.0
2015-Jul-26 10:32N 01°16' E 103°47'0 0.0
2015-Jul-26 09:32N 01°16' E 103°47'0 0.0
2015-Jul-26 08:20N 01°16' E 103°47'0 0.0
2015-Jul-26 07:32N 01°16' E 103°47'0 0.0
2015-Jul-26 06:26N 01°16' E 103°47'0 0.0
2015-Jul-26 05:32N 01°16' E 103°47'0 0.0
2015-Jul-26 04:32N 01°16' E 103°47'0 0.0
2015-Jul-26 03:32N 01°16' E 103°47'0 0.0
2015-Jul-26 02:32N 01°16' E 103°47'0 0.0
2015-Jul-26 01:20N 01°16' E 103°47'0 0.0
2015-Jul-26 00:33N 01°16' E 103°47'2 1.7
2015-Jul-25 23:33N 01°15' E 103°46'6 5.9
2015-Jul-25 22:34N 01°13' E 103°40'8 7.5
2015-Jul-25 21:31N 01°13' E 103°32'138 2.8
2015-Jul-23 19:33N 02°27' E 101°35'1312.6
2015-Jul-23 18:33N 02°35' E 101°25'1312.9
2015-Jul-23 17:33N 02°41' E 101°14'16 5.3
2015-Jul-23 14:33N 02°57' E 101°18'0 0.0
2015-Jul-23 12:30N 02°57' E 101°18'0 0.0
2015-Jul-23 09:33N 02°57' E 101°18'0 0.0
2015-Jul-23 07:33N 02°57' E 101°18'0 0.0
2015-Jul-23 06:33N 02°57' E 101°18'0 0.0
2015-Jul-23 04:33N 02°57' E 101°18'0 0.0
2015-Jul-23 02:33N 02°57' E 101°18'5 2.4
2015-Jul-23 00:33N 02°52' E 101°16'8 8.5
2015-Jul-22 23:33N 02°45' E 101°12'9 9.2
2015-Jul-22 22:33N 02°47' E 101°03'1613.2
2015-Jul-22 21:20N 02°57' E 100°50'2413.3
2015-Jul-22 19:33N 03°12' E 100°32'1413.5
2015-Jul-22 18:33N 03°20' E 100°21'4013.1
2015-Jul-22 15:30N 03°46' E 099°51'2613.5
2015-Jul-22 13:33N 04°02' E 099°30'4313.9
2015-Jul-22 10:27N 04°29' E 098°56'  

Dump ship's entire track history